Fair View, Colorado
Current Conditions -  °F | °C
As of 5:53 PM on Tuesday 25 Nov 2014 (Local Time) from KLHX Reporting Station
Clear Clear  
Wind Chill: 38°   Ceiling: Unl
Heat Index: 44°   Visibility: 10mi
Dew Point: 21°   Wind: 12mph
Humidity: 40%   Direction: 250°WSW
Pressure: 29.92"   Gusts: NA
Location:  37.8368°N, 103.544°W
Report Text: KLHX 260053Z AUTO 25010KT 10SM CLR 07/M06 A2992 RMK AO2 SLP137 T00671061
Loading
Personal Weather Stations






























Interactive Weather Map New forecast layout! Learn more

10-Day Weather Forecast

Advertisements
Track Severe Weather on mobile